Time;durP1;ratioP1;P1;durP2;ratioP2;P2;SDS_P1;SDS_P2;PMS_P1;PMS_P2;Temp;Humidity;BMP_temperature;BMP_pressure;BME280_temperature;BME280_humidity;BME280_pressure;Samples;Min_cycle;Max_cycle;Signal;HPM_P1;HPM_P2
2022/01/18 00:00:23;;;;;;;9.50;2.75;;;;;;;1.23;93.07;100334.34;4089958;28;20048;-71
2022/01/18 00:02:23;;;;;;;15.85;3.28;;;;;;;1.31;91.42;100339.28;4091189;28;20352;-71
2022/01/18 00:04:24;;;;;;;11.23;2.97;;;;;;;1.33;91.92;100334.38;4089692;28;20108;-71
2022/01/18 00:06:24;;;;;;;19.75;3.60;;;;;;;1.28;92.42;100334.38;4091114;28;20042;-72
2022/01/18 00:08:25;;;;;;;15.18;3.42;;;;;;;1.31;92.83;100342.81;4088594;28;20051;-71
2022/01/18 00:10:29;;;;;;;18.05;3.13;;;;;;;1.31;92.33;100331.09;4090600;28;20475;-71
2022/01/18 00:12:53;;;;;;;13.15;3.53;;;;;;;1.26;93.23;100337.38;4090610;28;20441;-71
2022/01/18 00:15:05;;;;;;;13.73;3.08;;;;;;;1.21;94.19;100334.63;4094807;28;20051;-71
2022/01/18 00:17:17;;;;;;;10.02;2.58;;;;;;;1.20;94.27;100337.63;4090945;28;20035;-71
2022/01/18 00:19:23;;;;;;;10.52;3.65;;;;;;;1.18;94.56;100339.81;4091981;28;20051;-71
2022/01/18 00:23:30;;;;;;;11.63;3.15;;;;;;;1.18;95.95;100340.63;4091820;28;20043;-71
2022/01/18 00:25:33;;;;;;;8.52;2.88;;;;;;;1.16;95.82;100344.69;4092436;28;20043;-71
2022/01/18 00:27:34;;;;;;;11.55;3.42;;;;;;;1.12;96.31;100337.06;4091347;28;20197;-71
2022/01/18 00:29:39;;;;;;;11.00;2.75;;;;;;;1.16;97.11;100347.44;4094509;28;20058;-71
2022/01/18 00:34:08;;;;;;;10.98;3.47;;;;;;;1.15;98.17;100335.72;4093675;28;20481;-72
2022/01/18 00:36:22;;;;;;;9.40;2.60;;;;;;;1.17;98.51;100352.63;4091936;28;20057;-72
2022/01/18 00:40:41;;;;;;;17.80;3.28;;;;;;;1.18;99.06;100359.72;4092550;28;20428;-71
2022/01/18 00:42:42;;;;;;;5.10;2.63;;;;;;;1.20;99.32;100359.44;4092599;28;20470;-71
2022/01/18 00:44:42;;;;;;;6.88;2.58;;;;;;;1.18;98.37;100361.63;4093352;28;20090;-71
2022/01/18 00:46:44;;;;;;;13.70;3.10;;;;;;;1.18;98.38;100357.00;4090347;28;20089;-71
2022/01/18 00:48:45;;;;;;;16.15;2.72;;;;;;;1.18;98.21;100361.63;4093030;28;20070;-71
2022/01/18 00:50:49;;;;;;;15.57;3.38;;;;;;;1.13;98.73;100363.25;4090907;28;20633;-71
2022/01/18 00:52:52;;;;;;;15.70;3.25;;;;;;;1.15;98.62;100365.69;4092321;28;20048;-71
2022/01/18 00:54:52;;;;;;;15.93;3.28;;;;;;;1.18;98.43;100369.81;4092166;28;20682;-71
2022/01/18 00:56:54;;;;;;;13.82;3.03;;;;;;;1.21;99.33;100374.72;4088713;28;20047;-71
2022/01/18 00:58:55;;;;;;;13.93;3.10;;;;;;;1.21;99.33;100388.34;4089710;28;20051;-71
2022/01/18 01:00:55;;;;;;;7.35;2.65;;;;;;;1.21;99.74;100375.53;4088365;28;20842;-71
2022/01/18 01:02:56;;;;;;;13.48;4.25;;;;;;;1.24;99.58;100383.19;4089703;28;20078;-71
2022/01/18 01:04:56;;;;;;;9.05;2.75;;;;;;;1.23;98.88;100383.44;4089276;28;20047;-71
2022/01/18 01:06:56;;;;;;;16.83;2.72;;;;;;;1.21;99.01;100380.16;4088988;28;20641;-71
2022/01/18 01:08:57;;;;;;;7.45;2.47;;;;;;;1.19;99.11;100375.00;4094682;28;20059;-71
2022/01/18 01:10:57;;;;;;;12.85;3.25;;;;;;;1.17;98.80;100388.09;4104884;28;20483;-71
2022/01/18 01:12:58;;;;;;;8.40;3.40;;;;;;;1.17;98.91;100385.34;4096745;28;20504;-71
2022/01/18 01:15:06;;;;;;;11.07;3.20;;;;;;;1.18;99.32;100389.72;4091166;28;20052;-71
2022/01/18 01:17:22;;;;;;;16.10;3.47;;;;;;;1.20;99.60;100386.72;4091154;28;20195;-71
2022/01/18 01:42:03;;;;;;;9.52;3.78;;;;;;;1.15;100.00;100392.97;4090916;28;20105;-72
2022/01/18 01:44:21;;;;;;;12.27;3.67;;;;;;;1.15;100.00;100390.25;4088940;28;20055;-72
2022/01/18 01:46:22;;;;;;;12.30;3.72;;;;;;;1.18;100.00;100392.44;4095833;28;20514;-72
2022/01/18 01:48:24;;;;;;;14.13;3.95;;;;;;;1.18;100.00;100397.09;4095541;28;20039;-72
2022/01/18 01:50:27;;;;;;;9.90;3.63;;;;;;;1.17;100.00;100399.00;4090316;28;20353;-71
2022/01/18 01:52:28;;;;;;;16.77;3.50;;;;;;;1.18;100.00;100391.63;4089898;28;20474;-71
2022/01/18 01:54:28;;;;;;;8.30;2.75;;;;;;;1.18;100.00;100391.63;4088768;28;20047;-71
2022/01/18 01:56:30;;;;;;;9.70;3.08;;;;;;;1.20;100.00;100393.00;4091548;28;20108;-71
2022/01/18 01:58:30;;;;;;;10.18;2.58;;;;;;;1.20;100.00;100384.00;4088485;28;20054;-71
2022/01/18 02:00:31;;;;;;;14.88;3.88;;;;;;;1.24;100.00;100375.00;4171229;28;20460;-71
2022/01/18 02:02:32;;;;;;;15.25;3.20;;;;;;;1.25;100.00;100381.28;4089836;28;20043;-71
2022/01/18 02:04:32;;;;;;;11.60;3.55;;;;;;;1.26;100.00;100385.66;4088386;28;20426;-71
2022/01/18 02:06:32;;;;;;;11.90;2.80;;;;;;;1.23;100.00;100383.44;4089145;28;20058;-71
2022/01/18 02:08:33;;;;;;;18.10;3.97;;;;;;;1.24;100.00;100380.47;4088506;28;20075;-71
2022/01/18 02:10:37;;;;;;;7.88;2.70;;;;;;;1.26;100.00;100382.91;4093139;28;20059;-71
2022/01/18 02:12:38;;;;;;;12.85;3.38;;;;;;;1.24;100.00;100379.63;4095454;28;20058;-71
2022/01/18 02:14:40;;;;;;;15.23;3.28;;;;;;;1.25;100.00;100373.91;4088886;28;20081;-71
2022/01/18 02:23:38;;;;;;;12.68;3.88;;;;;;;1.26;100.00;100370.09;4105862;28;20194;-71
2022/01/18 02:25:39;;;;;;;9.00;4.72;;;;;;;1.26;100.00;100377.47;4093806;28;20079;-71
2022/01/18 02:27:39;;;;;;;11.23;4.18;;;;;;;1.23;100.00;100370.63;4087487;28;20043;-71
2022/01/18 02:29:40;;;;;;;10.70;3.22;;;;;;;1.27;100.00;100365.47;4088877;28;20039;-72
2022/01/18 02:31:41;;;;;;;15.00;3.45;;;;;;;1.27;100.00;100352.66;4167181;28;20692;-72
2022/01/18 02:33:41;;;;;;;13.68;3.35;;;;;;;1.29;100.00;100350.47;4087993;28;20165;-72
2022/01/18 02:35:42;;;;;;;14.82;3.63;;;;;;;1.28;100.00;100350.72;4088468;28;20691;-72
2022/01/18 02:37:42;;;;;;;6.30;2.80;;;;;;;1.32;100.00;100365.44;4087214;28;20051;-72
2022/01/18 02:39:43;;;;;;;8.77;3.15;;;;;;;1.34;100.00;100355.13;4088710;28;20380;-72
2022/01/18 02:41:43;;;;;;;13.23;3.30;;;;;;;1.36;100.00;100359.19;4088949;28;20398;-72
2022/01/18 02:43:46;;;;;;;12.40;3.40;;;;;;;1.39;100.00;100352.38;4087914;28;20043;-72
2022/01/18 02:45:47;;;;;;;11.85;3.17;;;;;;;1.38;100.00;100357.00;4093471;28;20439;-72
2022/01/18 02:47:47;;;;;;;12.10;3.40;;;;;;;1.37;100.00;100347.19;4091287;28;20061;-71
2022/01/18 02:49:48;;;;;;;17.50;4.18;;;;;;;1.48;100.00;100358.91;4089087;28;20492;-72
2022/01/18 02:51:48;;;;;;;15.23;4.32;;;;;;;1.48;100.00;100353.47;4088948;28;20053;-72
2022/01/18 02:54:05;;;;;;;12.80;3.28;;;;;;;1.53;100.00;100361.66;4088050;28;20356;-72
2022/01/18 02:56:06;;;;;;;14.05;2.92;;;;;;;1.53;100.00;100352.66;4087484;28;20043;-72
2022/01/18 02:58:09;;;;;;;14.20;2.78;;;;;;;1.53;100.00;100360.84;4087605;28;20475;-72
2022/01/18 03:00:30;;;;;;;11.07;2.72;;;;;;;1.55;100.00;100367.66;4093781;28;20039;-71
2022/01/18 03:04:50;;;;;;;12.75;2.72;;;;;;;1.54;100.00;100368.75;4091650;28;20050;-71
2022/01/18 03:06:50;;;;;;;11.20;2.55;;;;;;;1.52;100.00;100360.03;4087555;28;20039;-71
2022/01/18 03:08:51;;;;;;;13.00;3.15;;;;;;;1.55;100.00;100364.94;4088909;28;20039;-71
2022/01/18 03:10:51;;;;;;;10.68;3.38;;;;;;;1.58;100.00;100367.13;4090606;28;20089;-71
2022/01/18 03:12:51;;;;;;;8.73;2.33;;;;;;;1.65;100.00;100373.09;4088539;28;20716;-71
2022/01/18 03:14:52;;;;;;;13.95;3.13;;;;;;;1.61;100.00;100369.31;4087891;28;20047;-71
2022/01/18 03:16:52;;;;;;;13.15;3.60;;;;;;;1.58;100.00;100366.31;4088671;28;20569;-71
2022/01/18 03:18:53;;;;;;;11.23;3.45;;;;;;;1.65;100.00;100367.66;4089017;28;20412;-71
2022/01/18 03:20:54;;;;;;;12.63;4.10;;;;;;;1.71;100.00;100370.38;4092235;28;20467;-71
2022/01/18 03:22:54;;;;;;;15.48;3.30;;;;;;;1.68;100.00;100367.13;4098754;28;20043;-71
2022/01/18 03:29:14;;;;;;;16.67;4.38;;;;;;;1.77;100.00;100372.84;4086734;28;20121;-71
2022/01/18 03:31:14;;;;;;;12.07;2.70;;;;;;;1.74;100.00;100369.84;4087617;28;20047;-71
2022/01/18 03:33:16;;;;;;;11.10;2.88;;;;;;;1.74;100.00;100362.50;4087171;28;20055;-71
2022/01/18 03:35:17;;;;;;;11.38;2.63;;;;;;;1.75;100.00;100363.31;4087499;28;20122;-71
2022/01/18 03:37:17;;;;;;;14.98;3.03;;;;;;;1.76;100.00;100370.41;4087019;28;20128;-71
2022/01/18 03:39:19;;;;;;;6.57;2.45;;;;;;;1.80;100.00;100369.56;4087044;28;20043;-71
2022/01/18 03:41:20;;;;;;;19.90;2.85;;;;;;;1.78;100.00;100369.03;4088813;28;20375;-71
2022/01/18 03:43:20;;;;;;;19.63;2.97;;;;;;;1.80;100.00;100375.03;4090368;28;20058;-71
2022/01/18 03:45:29;;;;;;;13.20;3.20;;;;;;;1.77;100.00;100369.31;4088232;28;20294;-71
2022/01/18 03:47:31;;;;;;;9.93;2.92;;;;;;;1.75;100.00;100379.69;4088203;28;20097;-71
2022/01/18 03:49:35;;;;;;;9.27;2.60;;;;;;;1.75;100.00;100376.94;4087997;28;20105;-71
2022/01/18 03:51:36;;;;;;;10.13;2.58;;;;;;;1.72;100.00;100378.28;4101496;28;20055;-71
2022/01/18 03:53:38;;;;;;;7.90;2.42;;;;;;;1.66;100.00;100354.84;4092649;28;20089;-71
2022/01/18 03:55:38;;;;;;;9.05;3.00;;;;;;;1.68;100.00;100369.84;4089522;28;20052;-71
2022/01/18 03:57:39;;;;;;;19.95;3.35;;;;;;;1.65;100.00;100375.84;4087470;28;20576;-72
2022/01/18 03:59:40;;;;;;;13.30;2.65;;;;;;;1.67;100.00;100381.03;4088314;28;20136;-72
2022/01/18 04:01:40;;;;;;;15.13;3.30;;;;;;;1.65;100.00;100380.47;4087310;28;20321;-72
2022/01/18 04:03:41;;;;;;;9.90;2.80;;;;;;;1.68;100.00;100377.22;4088331;28;20061;-72
2022/01/18 04:05:41;;;;;;;9.23;3.00;;;;;;;1.68;100.00;100390.88;4088795;28;20057;-72
2022/01/18 04:07:42;;;;;;;8.25;3.20;;;;;;;1.66;100.00;100385.69;4087237;28;20039;-72
2022/01/18 04:09:43;;;;;;;10.90;3.03;;;;;;;1.70;100.00;100385.94;4087826;28;20372;-72
2022/01/18 04:11:43;;;;;;;12.82;3.35;;;;;;;1.68;100.00;100386.22;4088082;28;20055;-71
2022/01/18 04:13:43;;;;;;;11.10;2.67;;;;;;;1.68;100.00;100394.41;4087600;28;20501;-71
2022/01/18 04:15:44;;;;;;;13.75;3.05;;;;;;;1.67;100.00;100392.78;4086310;28;20055;-71
2022/01/18 04:18:02;;;;;;;13.38;3.53;;;;;;;1.71;100.00;100397.69;4087129;28;20054;-71
2022/01/18 04:27:01;;;;;;;10.73;3.10;;;;;;;1.73;100.00;100387.31;4100698;28;20182;-71
2022/01/18 04:29:01;;;;;;;11.98;3.17;;;;;;;1.73;100.00;100384.56;4094676;28;20097;-71
2022/01/18 04:31:03;;;;;;;17.98;3.67;;;;;;;1.80;100.00;100385.13;4091176;28;20475;-71
2022/01/18 04:33:04;;;;;;;13.73;3.45;;;;;;;1.88;100.00;100388.13;4090273;28;20134;-71
2022/01/18 04:35:05;;;;;;;12.60;2.90;;;;;;;1.90;100.00;100387.84;4086871;28;20166;-71
2022/01/18 04:37:05;;;;;;;11.73;3.10;;;;;;;1.90;100.00;100405.06;4086467;28;20094;-71
2022/01/18 04:39:06;;;;;;;12.30;3.42;;;;;;;1.90;100.00;100399.59;4087343;28;20566;-71
2022/01/18 04:41:11;;;;;;;12.68;2.83;;;;;;;1.84;100.00;100402.59;4086709;28;20047;-71
2022/01/18 04:49:59;;;;;;;8.77;2.55;;;;;;;1.77;100.00;100405.59;4087092;28;20054;-71
2022/01/18 04:51:59;;;;;;;13.73;3.03;;;;;;;1.71;100.00;100406.69;4086262;28;20483;-71
2022/01/18 04:54:02;;;;;;;11.40;3.08;;;;;;;1.68;100.00;100405.31;4087250;28;20394;-71
2022/01/18 04:56:08;;;;;;;10.60;2.58;;;;;;;1.70;100.00;100415.97;4086524;28;20044;-71
2022/01/18 04:58:08;;;;;;;7.55;2.55;;;;;;;1.68;100.00;100412.69;4088852;28;20562;-71
2022/01/18 05:00:09;;;;;;;12.30;2.40;;;;;;;1.67;100.00;100403.69;4090229;28;20070;-71
2022/01/18 05:02:09;;;;;;;9.93;2.80;;;;;;;1.65;100.00;100408.59;4096106;28;20417;-71
2022/01/18 05:04:10;;;;;;;13.00;2.75;;;;;;;1.67;100.00;100411.06;4169801;28;20032;-71
2022/01/18 05:06:15;;;;;;;9.43;2.70;;;;;;;1.65;100.00;100416.75;4094500;28;20459;-71
2022/01/18 05:08:16;;;;;;;13.75;2.88;;;;;;;1.73;100.00;100412.69;4092480;28;20031;-71
2022/01/18 05:10:20;;;;;;;10.30;3.20;;;;;;;1.73;100.00;100420.06;4102402;28;20035;-71
2022/01/18 05:12:36;;;;;;;14.70;4.10;;;;;;;1.68;100.00;100421.69;4094390;28;20060;-71
2022/01/18 05:14:37;;;;;;;15.10;6.28;;;;;;;1.64;100.00;100423.31;4091285;28;20052;-71
2022/01/18 05:23:09;;;;;;;15.63;5.25;;;;;;;1.60;100.00;100426.88;4089876;28;20074;-71
2022/01/18 05:25:10;;;;;;;15.18;5.78;;;;;;;1.56;100.00;100426.59;4097872;28;20055;-71
2022/01/18 05:27:10;;;;;;;10.18;4.20;;;;;;;1.58;100.00;100431.78;4092786;28;20089;-71
2022/01/18 05:29:10;;;;;;;15.43;4.50;;;;;;;1.60;100.00;100429.59;4092083;28;20223;-71
2022/01/18 05:31:11;;;;;;;13.40;3.40;;;;;;;1.60;100.00;100430.41;4089961;28;20064;-71
2022/01/18 05:33:11;;;;;;;14.77;6.80;;;;;;;1.61;100.00;100434.78;4091525;28;20054;-71
2022/01/18 05:35:11;;;;;;;27.50;11.68;;;;;;;1.61;100.00;100431.25;4091289;28;20047;-71
2022/01/18 05:37:12;;;;;;;23.63;12.13;;;;;;;1.62;100.00;100430.97;4092631;28;20396;-71
2022/01/18 05:39:12;;;;;;;22.58;9.50;;;;;;;1.62;100.00;100424.69;4090947;28;20495;-71
2022/01/18 05:41:14;;;;;;;11.35;4.97;;;;;;;1.64;100.00;100439.69;4094380;28;20077;-71
2022/01/18 05:43:14;;;;;;;16.67;6.53;;;;;;;1.62;100.00;100430.16;4091693;28;20097;-71
2022/01/18 05:45:15;;;;;;;15.60;8.32;;;;;;;1.65;100.00;100437.78;4092881;28;20043;-71
2022/01/18 05:47:15;;;;;;;15.88;8.75;;;;;;;1.66;100.00;100450.34;4090035;28;20399;-71
2022/01/18 05:49:16;;;;;;;23.33;10.52;;;;;;;1.64;100.00;100439.69;4094432;28;20304;-71
2022/01/18 05:51:16;;;;;;;19.27;9.07;;;;;;;1.68;100.00;100454.44;4092761;28;20430;-71
2022/01/18 05:53:16;;;;;;;16.92;8.43;;;;;;;1.66;100.00;100453.91;4093056;28;20073;-72
2022/01/18 05:55:17;;;;;;;27.23;11.52;;;;;;;1.71;100.00;100450.34;4090612;28;20047;-72
2022/01/18 05:57:17;;;;;;;25.73;12.55;;;;;;;1.65;100.00;100449.50;4083815;28;20044;-72
2022/01/18 05:59:23;;;;;;;31.40;14.18;;;;;;;1.63;100.00;100451.69;4090570;28;20499;-71
2022/01/18 06:01:32;;;;;;;51.85;23.73;;;;;;;1.66;100.00;100453.91;4092650;28;20058;-71
2022/01/18 06:03:49;;;;;;;36.55;15.95;;;;;;;1.71;100.00;100457.72;4092972;28;20690;-71
2022/01/18 06:08:10;;;;;;;30.00;14.40;;;;;;;1.73;100.00;100458.25;4089306;28;20479;-71
2022/01/18 06:10:10;;;;;;;42.42;17.02;;;;;;;1.75;100.00;100461.56;4090589;28;20110;-71
2022/01/18 06:12:10;;;;;;;41.95;16.38;;;;;;;1.73;100.00;100453.63;4091865;28;20172;-71
2022/01/18 06:14:11;;;;;;;34.13;13.25;;;;;;;1.80;100.00;100458.81;4091040;28;20023;-71
2022/01/18 06:16:11;;;;;;;41.13;16.83;;;;;;;1.83;100.00;100452.84;4092068;28;20474;-71
2022/01/18 06:18:12;;;;;;;22.25;8.93;;;;;;;1.85;100.00;100467.03;4089884;28;20035;-71
2022/01/18 06:20:12;;;;;;;15.27;6.18;;;;;;;1.81;100.00;100461.25;4092348;28;20134;-71
2022/01/18 06:22:13;;;;;;;12.63;4.60;;;;;;;1.84;100.00;100468.94;4088580;28;20035;-71
2022/01/18 06:24:13;;;;;;;16.02;5.22;;;;;;;1.91;100.00;100472.22;4090395;28;20282;-71
2022/01/18 06:26:15;;;;;;;13.32;4.55;;;;;;;1.89;100.00;100473.56;4089710;28;20108;-71
2022/01/18 06:28:15;;;;;;;12.55;4.35;;;;;;;1.89;100.00;100481.75;4088688;28;20387;-72
2022/01/18 06:30:16;;;;;;;17.42;7.10;;;;;;;1.91;100.00;100483.13;4089780;28;20043;-72
2022/01/18 06:32:16;;;;;;;18.08;8.43;;;;;;;1.95;100.00;100486.13;4108168;28;20031;-71
2022/01/18 06:34:17;;;;;;;21.50;8.88;;;;;;;1.94;100.00;100476.28;4090866;28;20514;-71
2022/01/18 06:36:17;;;;;;;17.65;8.18;;;;;;;1.93;100.00;100491.88;4091480;28;20081;-71
2022/01/18 06:38:17;;;;;;;21.88;7.80;;;;;;;1.97;100.00;100494.84;4089149;28;20046;-71
2022/01/18 06:40:18;;;;;;;26.50;12.45;;;;;;;1.95;100.00;100480.66;4091673;28;20506;-71
2022/01/18 06:42:20;;;;;;;16.95;5.95;;;;;;;1.93;100.00;100485.59;4088350;28;20027;-71
2022/01/18 06:44:22;;;;;;;14.60;5.15;;;;;;;1.86;100.00;100485.03;4089081;28;20420;-71
2022/01/18 06:46:22;;;;;;;18.92;7.57;;;;;;;1.86;100.00;100487.75;4092714;28;20740;-71
2022/01/18 06:48:23;;;;;;;17.30;5.45;;;;;;;1.92;100.00;100495.69;4087652;28;20045;-71
2022/01/18 06:50:23;;;;;;;25.30;9.48;;;;;;;1.93;100.00;100504.69;4109680;28;20050;-71
2022/01/18 06:52:23;;;;;;;24.67;10.05;;;;;;;1.94;100.00;100503.59;4097008;28;20047;-71
2022/01/18 06:54:24;;;;;;;67.30;25.58;;;;;;;1.95;100.00;100511.50;4097440;28;20488;-71
2022/01/18 06:56:26;;;;;;;81.43;31.40;;;;;;;1.98;100.00;100505.50;4091406;28;20484;-72
2022/01/18 06:58:26;;;;;;;26.95;11.65;;;;;;;2.00;100.00;100504.44;4090761;28;20043;-72
2022/01/18 07:00:27;;;;;;;14.55;5.28;;;;;;;2.00;100.00;100507.16;4093144;28;20467;-72
2022/01/18 07:02:27;;;;;;;8.70;3.47;;;;;;;2.05;100.00;100512.59;4094735;28;20039;-72
2022/01/18 07:04:28;;;;;;;9.38;4.68;;;;;;;2.10;100.00;100520.81;4089115;28;20089;-72
2022/01/18 07:06:28;;;;;;;15.52;4.97;;;;;;;2.03;100.00;100514.81;4088352;28;20408;-71
2022/01/18 07:08:30;;;;;;;7.43;2.92;;;;;;;2.09;100.00;100514.53;4089613;28;20043;-71
2022/01/18 07:10:31;;;;;;;12.33;6.30;;;;;;;2.14;100.00;100513.69;4093044;28;20054;-71
2022/01/18 07:12:34;;;;;;;11.27;4.70;;;;;;;2.15;100.00;100521.66;4092397;28;20282;-72
2022/01/18 07:14:35;;;;;;;6.47;3.42;;;;;;;2.18;100.00;100526.56;4091654;28;20138;-72
2022/01/18 07:16:35;;;;;;;11.23;5.43;;;;;;;2.17;100.00;100524.91;4087961;28;20122;-72
2022/01/18 07:18:35;;;;;;;9.77;4.50;;;;;;;2.18;100.00;100525.75;4089776;28;20051;-72
2022/01/18 07:20:38;;;;;;;13.00;5.50;;;;;;;2.19;100.00;100533.66;4087759;28;20094;-72
2022/01/18 07:22:42;;;;;;;8.60;3.53;;;;;;;2.18;100.00;100536.66;4087379;28;20055;-72
2022/01/18 07:24:44;;;;;;;8.48;3.20;;;;;;;2.21;100.00;100541.56;4087961;28;20101;-72
2022/01/18 07:26:46;;;;;;;7.45;3.63;;;;;;;2.27;100.00;100539.66;4092318;28;20510;-72
2022/01/18 07:28:46;;;;;;;6.45;3.10;;;;;;;2.32;100.00;100542.38;4091013;28;20086;-72
2022/01/18 07:30:47;;;;;;;10.57;4.45;;;;;;;2.35;100.00;100536.38;4088731;28;20074;-72
2022/01/18 07:32:48;;;;;;;6.93;2.90;;;;;;;2.41;100.00;100538.03;4088352;28;20217;-72
2022/01/18 07:34:52;;;;;;;4.15;3.30;;;;;;;2.45;100.00;100539.09;4090165;28;20047;-72
2022/01/18 07:36:52;;;;;;;5.13;2.67;;;;;;;2.42;100.00;100540.50;4087326;28;20054;-72
2022/01/18 07:38:55;;;;;;;4.57;2.20;;;;;;;2.41;100.00;100532.56;4088140;28;20047;-72
2022/01/18 07:40:55;;;;;;;;;;;;;;;2.41;100.00;100540.75;4089434;28;20074;-71
2022/01/18 07:42:57;;;;;;;6.78;2.63;;;;;;;2.38;100.00;100544.03;4088028;28;19933;-71
2022/01/18 07:44:57;;;;;;;6.40;2.38;;;;;;;2.36;100.00;100543.50;4088659;28;20061;-71
2022/01/18 07:46:58;;;;;;;8.93;2.38;;;;;;;2.35;100.00;100548.13;4087817;28;20059;-71
2022/01/18 07:48:58;;;;;;;4.72;1.92;;;;;;;2.32;100.00;100543.22;4089353;28;20051;-71
2022/01/18 07:50:58;;;;;;;8.45;2.53;;;;;;;2.32;100.00;100547.84;4091193;28;20047;-71
2022/01/18 07:52:59;;;;;;;4.88;2.50;;;;;;;2.34;100.00;100546.50;4088755;28;20077;-71
2022/01/18 07:54:59;;;;;;;8.95;1.95;;;;;;;2.40;100.00;100552.75;4091466;28;20089;-71
2022/01/18 07:56:59;;;;;;;4.95;2.03;;;;;;;2.40;100.00;100548.16;4086456;28;20059;-71
2022/01/18 07:59:00;;;;;;;4.85;2.55;;;;;;;2.37;100.00;100558.78;4088405;28;20047;-72
2022/01/18 08:01:00;;;;;;;9.50;2.90;;;;;;;2.42;100.00;100558.78;4093429;28;20215;-72
2022/01/18 08:03:01;;;;;;;9.15;2.28;;;;;;;2.38;100.00;100546.75;4088622;28;20051;-71
2022/01/18 08:05:01;;;;;;;4.63;1.95;;;;;;;2.33;100.00;100542.13;4087862;28;20063;-71
2022/01/18 08:07:01;;;;;;;7.07;2.38;;;;;;;2.33;100.00;100546.78;4086903;28;20141;-71
2022/01/18 08:09:02;;;;;;;10.32;3.95;;;;;;;2.39;100.00;100557.41;4153129;28;20053;-71
2022/01/18 08:11:02;;;;;;;10.93;4.40;;;;;;;2.43;100.00;100563.16;4094679;28;20051;-71
2022/01/18 08:13:04;;;;;;;9.75;2.60;;;;;;;2.46;100.00;100568.88;4089382;28;20483;-71
2022/01/18 08:15:13;;;;;;;8.50;3.17;;;;;;;2.45;100.00;100569.16;4088397;28;20047;-72
2022/01/18 08:17:14;;;;;;;29.40;5.80;;;;;;;2.44;100.00;100570.25;4090737;28;20058;-72
2022/01/18 08:19:16;;;;;;;10.60;2.83;;;;;;;2.37;100.00;100570.53;4087306;28;20431;-72
2022/01/18 08:21:17;;;;;;;8.63;3.80;;;;;;;2.36;100.00;100573.53;4089279;28;20047;-72
2022/01/18 08:23:17;;;;;;;5.85;2.45;;;;;;;2.38;100.00;100574.06;4088161;28;20479;-72
2022/01/18 08:25:17;;;;;;;6.85;2.50;;;;;;;2.34;100.00;100576.53;4088800;28;20626;-72
2022/01/18 08:27:20;;;;;;;7.20;2.22;;;;;;;2.36;100.00;100573.53;4086170;28;20053;-72
2022/01/18 08:29:21;;;;;;;;;;;;;;;2.40;100.00;100580.09;4090930;28;20652;-72
2022/01/18 08:31:21;;;;;;;7.28;2.40;;;;;;;2.37;100.00;100578.72;4087319;28;20017;-72
2022/01/18 08:33:23;;;;;;;4.93;2.13;;;;;;;2.40;100.00;100582.81;4088341;28;20599;-72
2022/01/18 08:35:24;;;;;;;13.23;2.57;;;;;;;2.43;100.00;100579.56;4090929;28;20250;-72
2022/01/18 08:37:25;;;;;;;3.33;2.13;;;;;;;2.45;100.00;100582.81;4093169;28;20296;-72
2022/01/18 08:39:25;;;;;;;9.38;3.85;;;;;;;2.48;100.00;100582.25;4090495;28;20250;-72
2022/01/18 08:41:27;;;;;;;10.48;4.15;;;;;;;2.48;100.00;100574.06;4090632;28;20096;-72
2022/01/18 08:43:31;;;;;;;6.70;2.73;;;;;;;2.47;100.00;100584.19;4091975;28;20043;-71
2022/01/18 08:45:32;;;;;;;13.02;3.35;;;;;;;2.48;100.00;100576.81;4089900;28;20460;-71
2022/01/18 08:47:32;;;;;;;6.13;2.20;;;;;;;2.50;100.00;100580.94;4089530;28;20035;-71
2022/01/18 08:49:33;;;;;;;7.28;2.80;;;;;;;2.52;100.00;100576.00;4090840;28;20044;-71
2022/01/18 08:51:34;;;;;;;10.93;3.17;;;;;;;2.53;100.00;100569.44;4089814;28;20436;-71
2022/01/18 08:53:35;;;;;;;5.45;2.97;;;;;;;2.53;100.00;100563.97;4090535;28;20545;-71
2022/01/18 08:55:36;;;;;;;5.20;2.45;;;;;;;2.54;100.00;100559.31;4090066;28;20173;-71
2022/01/18 08:57:36;;;;;;;8.63;2.70;;;;;;;2.60;100.00;100550.03;4093198;28;20129;-71
2022/01/18 08:59:37;;;;;;;6.40;2.72;;;;;;;2.65;100.00;100551.94;4090425;28;20246;-71
2022/01/18 09:01:37;;;;;;;7.03;2.65;;;;;;;2.69;100.00;100553.84;4092435;28;20085;-71
2022/01/18 09:03:38;;;;;;;6.63;2.55;;;;;;;2.74;100.00;100562.06;4092650;28;20082;-71
2022/01/18 09:05:38;;;;;;;6.63;2.70;;;;;;;2.76;100.00;100559.84;4089791;28;20332;-71
2022/01/18 09:07:39;;;;;;;5.78;2.80;;;;;;;2.81;100.00;100565.31;4090125;28;20438;-71
2022/01/18 09:09:42;;;;;;;3.60;2.40;;;;;;;2.86;100.00;100569.13;4095035;28;20207;-71
2022/01/18 09:11:42;;;;;;;5.70;2.72;;;;;;;2.87;100.00;100566.13;4091244;28;20166;-71
2022/01/18 09:13:42;;;;;;;6.20;3.00;;;;;;;2.93;100.00;100566.94;4090014;28;20480;-71
2022/01/18 09:15:43;;;;;;;10.27;3.10;;;;;;;2.97;100.00;100560.63;4089728;28;20100;-71
2022/01/18 09:17:43;;;;;;;10.52;2.60;;;;;;;3.01;100.00;100563.63;4089775;28;20134;-71
2022/01/18 09:19:44;;;;;;;9.63;2.80;;;;;;;3.07;100.00;100578.94;4089687;28;20043;-71
2022/01/18 09:21:47;;;;;;;11.02;3.20;;;;;;;3.15;100.00;100583.03;4090302;28;20047;-72
2022/01/18 09:23:48;;;;;;;6.47;3.28;;;;;;;3.18;100.00;100577.81;4090231;28;20505;-72
2022/01/18 09:25:48;;;;;;;8.68;3.75;;;;;;;3.23;100.00;100590.66;4089989;28;20066;-72
2022/01/18 09:27:50;;;;;;;5.97;2.83;;;;;;;3.25;100.00;100589.28;4089330;28;20727;-72
2022/01/18 09:29:50;;;;;;;7.63;2.55;;;;;;;3.26;100.00;100590.91;4089225;28;20443;-72
2022/01/18 09:31:50;;;;;;;9.45;3.58;;;;;;;3.27;100.00;100587.09;4090238;28;20050;-72
2022/01/18 09:33:51;;;;;;;13.48;5.93;;;;;;;3.34;100.00;100589.53;4089972;28;20138;-72
2022/01/18 09:35:51;;;;;;;9.15;3.50;;;;;;;3.28;100.00;100594.19;4090064;28;20388;-72
2022/01/18 09:37:52;;;;;;;7.28;3.60;;;;;;;3.29;100.00;100605.94;4089066;28;20453;-72
2022/01/18 09:39:53;;;;;;;11.05;3.47;;;;;;;3.30;100.00;100602.13;4090540;28;20047;-72
2022/01/18 09:41:54;;;;;;;9.52;3.85;;;;;;;3.29;100.00;100606.75;4090372;28;20052;-72
2022/01/18 09:43:55;;;;;;;10.13;5.38;;;;;;;3.26;100.00;100609.25;4088876;28;20058;-71
2022/01/18 09:45:57;;;;;;;7.50;3.70;;;;;;;3.27;100.00;100611.72;4090147;28;20366;-70
2022/01/18 09:47:59;;;;;;;7.03;4.43;;;;;;;3.32;100.00;100614.44;4089595;28;20043;-71
2022/01/18 09:49:59;;;;;;;9.95;2.63;;;;;;;3.24;100.00;100609.53;4089925;28;20062;-71
2022/01/18 09:52:00;;;;;;;6.55;2.63;;;;;;;3.34;100.00;100617.72;4093528;28;20051;-71
2022/01/18 09:54:01;;;;;;;5.68;2.70;;;;;;;3.42;100.00;100607.28;4090504;28;20051;-71
2022/01/18 09:56:01;;;;;;;8.82;3.08;;;;;;;3.40;100.00;100620.44;4092796;28;20035;-71
2022/01/18 09:58:05;;;;;;;16.70;5.88;;;;;;;3.45;100.00;100618.50;4091207;28;20039;-71
2022/01/18 10:00:07;;;;;;;13.75;6.55;;;;;;;3.48;100.00;100609.75;4089648;28;20067;-71
2022/01/18 10:02:10;;;;;;;;;;;;;;;3.53;100.00;100619.84;4091997;28;20027;-71
2022/01/18 10:04:23;;;;;;;14.15;6.38;;;;;;;3.57;100.00;100612.72;4091975;28;20189;-71
2022/01/18 10:06:26;;;;;;;15.98;6.80;;;;;;;3.57;100.00;100629.97;4091246;28;20506;-71
2022/01/18 10:08:26;;;;;;;12.07;5.03;;;;;;;3.62;100.00;100615.41;4088498;28;20066;-71
2022/01/18 10:10:45;;;;;;;24.30;10.77;;;;;;;3.64;100.00;100613.22;4093661;28;20514;-71
2022/01/18 10:12:55;;;;;;;9.98;5.22;;;;;;;3.67;100.00;100616.22;4094312;28;20071;-71
2022/01/18 10:14:59;;;;;;;10.13;3.53;;;;;;;3.65;100.00;100612.13;4171826;28;20053;-71
2022/01/18 10:16:59;;;;;;;7.53;3.25;;;;;;;3.67;100.00;100604.47;4088553;28;20048;-71
2022/01/18 10:19:05;;;;;;;6.28;3.08;;;;;;;3.69;100.00;100605.00;4093270;28;20552;-71
2022/01/18 10:21:07;;;;;;;7.43;3.85;;;;;;;3.75;100.00;100605.78;4089010;28;20399;-71
2022/01/18 10:23:19;;;;;;;10.85;5.82;;;;;;;3.79;100.00;100615.06;4094694;28;20057;-71
2022/01/18 10:25:24;;;;;;;8.02;5.38;;;;;;;3.92;99.87;100614.47;4092327;28;20048;-71
2022/01/18 10:27:35;;;;;;;7.20;4.55;;;;;;;3.91;99.16;100608.19;4093836;28;20486;-71
2022/01/18 10:29:48;;;;;;;73.40;27.42;;;;;;;3.98;99.08;100621.56;4090795;28;20055;-71